createdAt,value
2018-04-17T00:00:11.039Z,949.82
2018-04-17T00:01:10.947Z,949.84
2018-04-17T00:02:10.857Z,949.84
2018-04-17T00:03:10.768Z,949.88
2018-04-17T00:04:10.703Z,949.87
2018-04-17T00:05:10.580Z,949.84
2018-04-17T00:06:10.574Z,949.85
2018-04-17T00:07:10.396Z,949.84
2018-04-17T00:08:10.304Z,949.85
2018-04-17T00:09:10.244Z,949.86
2018-04-17T00:10:10.126Z,949.84
2018-04-17T00:11:10.028Z,949.83
2018-04-17T00:12:09.937Z,949.84
2018-04-17T00:13:09.934Z,949.84
2018-04-17T00:14:09.783Z,949.80
2018-04-17T00:15:09.660Z,949.84
2018-04-17T00:16:09.569Z,949.82
2018-04-17T00:17:09.476Z,949.82
2018-04-17T00:18:09.396Z,949.82
2018-04-17T00:19:09.324Z,949.82
2018-04-17T00:20:09.287Z,949.87
2018-04-17T00:21:09.107Z,949.84
2018-04-17T00:22:09.016Z,949.88
2018-04-17T00:23:08.924Z,949.88
2018-04-17T00:24:08.861Z,949.88
2018-04-17T00:25:08.736Z,949.89
2018-04-17T00:26:08.648Z,949.89
2018-04-17T00:27:08.638Z,949.88
2018-04-17T00:28:08.485Z,949.94
2018-04-17T00:29:08.398Z,949.91
2018-04-17T00:30:08.280Z,949.93
2018-04-17T00:31:08.184Z,949.91
2018-04-17T00:32:08.095Z,949.99
2018-04-17T00:33:08.000Z,949.95
2018-04-17T00:34:08.023Z,949.93
2018-04-17T00:35:07.819Z,949.95
2018-04-17T00:36:07.724Z,949.97
2018-04-17T00:37:07.632Z,949.96
2018-04-17T00:38:07.541Z,950.00
2018-04-17T00:39:07.468Z,949.99
2018-04-17T00:40:07.384Z,950.01
2018-04-17T00:41:07.351Z,950.03
2018-04-17T00:42:07.173Z,950.04
2018-04-17T00:43:07.082Z,950.02
2018-04-17T00:44:06.987Z,950.02
2018-04-17T00:45:06.964Z,950.06
2018-04-17T00:46:06.809Z,950.05
2018-04-17T00:47:06.711Z,950.06
2018-04-17T00:48:06.700Z,950.08
2018-04-17T00:49:06.525Z,950.04
2018-04-17T00:50:06.469Z,950.05
2018-04-17T00:51:06.340Z,950.06
2018-04-17T00:52:06.250Z,950.06
2018-04-17T00:53:06.157Z,950.09
2018-04-17T00:54:06.064Z,950.08
2018-04-17T00:55:06.089Z,950.09
2018-04-17T00:56:05.879Z,950.12
2018-04-17T00:57:05.788Z,950.09
2018-04-17T00:58:05.707Z,950.11
2018-04-17T00:59:05.622Z,950.11
2018-04-17T01:00:05.539Z,950.12
2018-04-17T01:01:05.419Z,950.11
2018-04-17T01:02:05.411Z,950.13
2018-04-17T01:03:05.234Z,950.13
2018-04-17T01:04:05.144Z,950.14
2018-04-17T01:05:05.080Z,950.11
2018-04-17T01:06:04.957Z,950.12
2018-04-17T01:07:04.865Z,950.13
2018-04-17T01:08:04.774Z,950.14
2018-04-17T01:09:04.784Z,950.14
2018-04-17T01:10:04.623Z,950.11
2018-04-17T01:11:04.503Z,950.06
2018-04-17T01:12:04.410Z,950.03
2018-04-17T01:13:04.315Z,950.02
2018-04-17T01:14:04.221Z,950.03
2018-04-17T01:15:04.167Z,950.05
2018-04-17T01:16:04.126Z,950.07
2018-04-17T01:17:03.946Z,950.07
2018-04-17T01:18:03.853Z,950.09
2018-04-17T01:19:03.763Z,950.07
2018-04-17T01:20:03.706Z,950.11
2018-04-17T01:21:03.579Z,950.12
2018-04-17T01:22:03.487Z,950.12
2018-04-17T01:23:03.480Z,950.09
2018-04-17T01:24:03.307Z,950.07
2018-04-17T01:25:03.245Z,950.07
2018-04-17T01:26:03.122Z,950.06
2018-04-17T01:27:03.027Z,950.02
2018-04-17T01:28:02.937Z,950.05
2018-04-17T01:29:02.845Z,950.08
2018-04-17T01:30:02.880Z,950.05
2018-04-17T01:31:02.660Z,950.08
2018-04-17T01:32:02.568Z,950.11
2018-04-17T01:33:02.475Z,950.11
2018-04-17T01:34:02.385Z,950.10
2018-04-17T01:35:02.325Z,950.10
2018-04-17T01:36:02.202Z,950.10
2018-04-17T01:37:02.196Z,950.11
2018-04-17T01:38:02.020Z,950.14
2018-04-17T01:39:01.928Z,950.17
2018-04-17T01:40:01.864Z,950.22
2018-04-17T01:41:01.767Z,950.22
2018-04-17T01:42:01.649Z,950.28
2018-04-17T01:43:01.558Z,950.27
2018-04-17T01:44:01.475Z,950.24
2018-04-17T01:45:01.406Z,950.28
2018-04-17T01:46:01.283Z,950.26
2018-04-17T01:47:01.189Z,950.27
2018-04-17T01:48:01.100Z,950.26
2018-04-17T01:49:01.007Z,950.23
2018-04-17T01:50:00.949Z,950.22
2018-04-17T01:51:00.828Z,950.22
2018-04-17T01:52:00.730Z,950.27
2018-04-17T01:53:00.647Z,950.28
2018-04-17T01:54:00.549Z,950.29
2018-04-17T01:55:00.460Z,950.26
2018-04-17T01:56:00.402Z,950.27
2018-04-17T01:57:00.270Z,950.27
2018-04-17T01:58:00.182Z,950.27
2018-04-17T01:59:00.092Z,950.25
2018-04-17T02:00:00.001Z,950.25
2018-04-17T02:00:59.936Z,950.25
2018-04-17T02:01:59.814Z,950.27
2018-04-17T02:02:59.723Z,950.25
2018-04-17T02:03:59.631Z,950.27
2018-04-17T02:04:59.542Z,950.28
2018-04-17T02:05:59.476Z,950.33
2018-04-17T02:06:59.356Z,950.35
2018-04-17T02:07:59.265Z,950.36
2018-04-17T02:08:59.172Z,950.35
2018-04-17T02:09:59.081Z,950.39
2018-04-17T02:10:59.079Z,950.35
2018-04-17T02:11:58.893Z,950.38
2018-04-17T02:12:58.802Z,950.38
2018-04-17T02:13:58.709Z,950.36
2018-04-17T02:14:58.621Z,950.39
2018-04-17T02:15:58.555Z,950.42
2018-04-17T02:16:58.437Z,950.44
2018-04-17T02:17:58.346Z,950.47
2018-04-17T02:18:58.252Z,950.42
2018-04-17T02:19:58.160Z,950.47
2018-04-17T02:20:58.099Z,950.41
2018-04-17T02:21:57.975Z,950.42
2018-04-17T02:22:57.883Z,950.43
2018-04-17T02:23:57.792Z,950.47
2018-04-17T02:24:57.696Z,950.46
2018-04-17T02:25:57.633Z,950.46
2018-04-17T02:26:57.521Z,950.48
2018-04-17T02:27:57.422Z,950.43
2018-04-17T02:28:57.332Z,950.45
2018-04-17T02:29:57.236Z,950.51
2018-04-17T02:30:57.176Z,950.50
2018-04-17T02:31:57.152Z,950.50
2018-04-17T02:32:56.959Z,950.54
2018-04-17T02:33:56.867Z,950.56
2018-04-17T02:34:56.774Z,950.51
2018-04-17T02:35:56.712Z,950.54
2018-04-17T02:36:56.588Z,950.53
2018-04-17T02:37:56.499Z,950.57
2018-04-17T02:38:56.495Z,950.58
2018-04-17T02:39:56.313Z,950.62
2018-04-17T02:40:56.253Z,950.59
2018-04-17T02:41:56.127Z,950.62
2018-04-17T02:42:56.035Z,950.58
2018-04-17T02:43:55.944Z,950.59
2018-04-17T02:44:55.849Z,950.62
2018-04-17T02:45:55.868Z,950.62
2018-04-17T02:46:55.664Z,950.67
2018-04-17T02:47:55.579Z,950.62
2018-04-17T02:48:55.477Z,950.68
2018-04-17T02:49:55.385Z,950.63
2018-04-17T02:50:55.322Z,950.69
2018-04-17T02:51:55.200Z,950.69
2018-04-17T02:52:55.192Z,950.70
2018-04-17T02:53:55.012Z,950.72
2018-04-17T02:54:54.921Z,950.73
2018-04-17T02:55:54.857Z,950.71
2018-04-17T02:56:54.736Z,950.75
2018-04-17T02:57:54.643Z,950.76
2018-04-17T02:58:54.551Z,950.79
2018-04-17T02:59:54.547Z,950.79
2018-04-17T03:00:54.390Z,950.81
2018-04-17T03:01:54.273Z,950.86
2018-04-17T03:02:54.190Z,950.85
2018-04-17T03:03:54.090Z,950.88
2018-04-17T03:04:53.992Z,950.88
2018-04-17T03:05:53.930Z,950.88
2018-04-17T03:06:53.899Z,950.88
2018-04-17T03:07:53.714Z,950.92
2018-04-17T03:08:53.622Z,950.93
2018-04-17T03:09:53.530Z,950.94
2018-04-17T03:10:53.466Z,950.96
2018-04-17T03:11:53.340Z,950.97
2018-04-17T03:12:53.265Z,950.97
2018-04-17T03:13:53.246Z,951.00
2018-04-17T03:14:53.065Z,951.01
2018-04-17T03:15:52.974Z,950.98
2018-04-17T03:16:52.907Z,950.97
2018-04-17T03:17:52.785Z,951.02
2018-04-17T03:18:52.691Z,951.05
2018-04-17T03:19:52.598Z,951.07
2018-04-17T03:20:52.592Z,951.03
2018-04-17T03:21:52.441Z,951.10
2018-04-17T03:22:52.334Z,951.06
2018-04-17T03:23:52.230Z,951.07
2018-04-17T03:24:52.133Z,951.04
2018-04-17T03:25:52.054Z,951.03
2018-04-17T03:26:51.981Z,951.03
2018-04-17T03:27:51.946Z,951.04
2018-04-17T03:28:51.767Z,951.06
2018-04-17T03:29:51.667Z,951.09
2018-04-17T03:30:51.577Z,951.09
2018-04-17T03:31:51.514Z,951.07
2018-04-17T03:32:51.402Z,951.13
2018-04-17T03:33:51.294Z,951.13
2018-04-17T03:34:51.289Z,951.15
2018-04-17T03:35:51.108Z,951.16
2018-04-17T03:36:51.043Z,951.15
2018-04-17T03:37:50.921Z,951.11
2018-04-17T03:38:50.825Z,951.17
2018-04-17T03:39:50.734Z,951.14
2018-04-17T03:40:50.640Z,951.18
2018-04-17T03:41:50.576Z,951.15
2018-04-17T03:42:50.453Z,951.20
2018-04-17T03:43:50.361Z,951.22
2018-04-17T03:44:50.265Z,951.21
2018-04-17T03:45:50.171Z,951.20
2018-04-17T03:46:50.108Z,951.25
2018-04-17T03:47:49.986Z,951.24
2018-04-17T03:48:50.140Z,951.24
2018-04-17T03:49:49.798Z,951.27
2018-04-17T03:50:49.704Z,951.28
2018-04-17T03:51:49.643Z,951.27
2018-04-17T03:52:49.516Z,951.30
2018-04-17T03:53:49.439Z,951.36
2018-04-17T03:54:49.327Z,951.35
2018-04-17T03:55:49.234Z,951.33
2018-04-17T03:56:49.171Z,951.35
2018-04-17T03:57:49.046Z,951.33
2018-04-17T03:58:48.950Z,951.35
2018-04-17T03:59:48.861Z,951.33
2018-04-17T04:00:48.766Z,951.35
2018-04-17T04:01:48.698Z,951.35
2018-04-17T04:02:48.578Z,951.35
2018-04-17T04:03:48.484Z,951.38
2018-04-17T04:04:48.389Z,951.35
2018-04-17T04:05:48.297Z,951.37
2018-04-17T04:06:48.233Z,951.39
2018-04-17T04:07:48.110Z,951.38
2018-04-17T04:08:48.015Z,951.42
2018-04-17T04:09:47.922Z,951.46
2018-04-17T04:10:47.829Z,951.48
2018-04-17T04:11:47.760Z,951.47
2018-04-17T04:12:47.638Z,951.45
2018-04-17T04:13:47.566Z,951.48
2018-04-17T04:14:47.451Z,951.49
2018-04-17T04:15:47.357Z,951.52
2018-04-17T04:16:47.293Z,951.53
2018-04-17T04:17:47.169Z,951.53
2018-04-17T04:18:47.077Z,951.54
2018-04-17T04:19:46.983Z,951.54
2018-04-17T04:20:46.887Z,951.52
2018-04-17T04:21:46.800Z,951.55
2018-04-17T04:22:46.729Z,951.52
2018-04-17T04:23:46.621Z,951.53
2018-04-17T04:24:46.512Z,951.56
2018-04-17T04:25:46.419Z,951.53
2018-04-17T04:26:46.323Z,951.59
2018-04-17T04:27:46.262Z,951.61
2018-04-17T04:28:46.134Z,951.64
2018-04-17T04:29:46.039Z,951.63
2018-04-17T04:30:45.969Z,951.65
2018-04-17T04:31:45.856Z,951.71
2018-04-17T04:32:45.792Z,951.71
2018-04-17T04:33:45.666Z,951.71
2018-04-17T04:34:45.577Z,951.74
2018-04-17T04:35:45.477Z,951.73
2018-04-17T04:36:45.384Z,951.74
2018-04-17T04:37:45.320Z,951.75
2018-04-17T04:38:45.196Z,951.79
2018-04-17T04:39:45.102Z,951.80
2018-04-17T04:40:45.010Z,951.78
2018-04-17T04:41:44.918Z,951.80
2018-04-17T04:42:44.863Z,951.82
2018-04-17T04:43:44.726Z,951.89
2018-04-17T04:44:44.632Z,951.86
2018-04-17T04:45:44.541Z,951.93
2018-04-17T04:46:44.443Z,951.96
2018-04-17T04:47:44.384Z,951.99
2018-04-17T04:48:44.258Z,952.01
2018-04-17T04:49:44.164Z,952.02
2018-04-17T04:50:44.068Z,951.98
2018-04-17T04:51:43.979Z,952.01
2018-04-17T04:52:43.910Z,952.04
2018-04-17T04:53:43.787Z,952.06
2018-04-17T04:54:43.695Z,952.06
2018-04-17T04:55:43.600Z,952.11
2018-04-17T04:56:43.507Z,952.14
2018-04-17T04:57:43.479Z,952.13
2018-04-17T04:58:43.316Z,952.09
2018-04-17T04:59:43.225Z,952.13
2018-04-17T05:00:43.131Z,952.11
2018-04-17T05:01:43.035Z,952.15
2018-04-17T05:02:42.941Z,952.15
2018-04-17T05:03:42.881Z,952.14
2018-04-17T05:04:42.756Z,952.15
2018-04-17T05:05:42.661Z,952.19
2018-04-17T05:06:42.572Z,952.17
2018-04-17T05:07:42.479Z,952.18
2018-04-17T05:08:42.413Z,952.21
2018-04-17T05:09:42.287Z,952.24
2018-04-17T05:10:42.192Z,952.27
2018-04-17T05:11:42.101Z,952.32
2018-04-17T05:12:42.008Z,952.36
2018-04-17T05:13:41.941Z,952.36
2018-04-17T05:14:41.822Z,952.42
2018-04-17T05:15:41.728Z,952.44
2018-04-17T05:16:41.635Z,952.43
2018-04-17T05:17:41.540Z,952.40
2018-04-17T05:18:41.476Z,952.45
2018-04-17T05:19:41.352Z,952.40
2018-04-17T05:20:41.265Z,952.49
2018-04-17T05:21:41.168Z,952.48
2018-04-17T05:22:41.075Z,952.47
2018-04-17T05:23:41.008Z,952.50
2018-04-17T05:24:40.888Z,952.51
2018-04-17T05:25:40.794Z,952.52
2018-04-17T05:26:40.982Z,952.52
2018-04-17T05:27:40.609Z,952.54
2018-04-17T05:28:40.549Z,952.59
2018-04-17T05:29:40.424Z,952.62
2018-04-17T05:30:40.332Z,952.64
2018-04-17T05:31:40.241Z,952.63
2018-04-17T05:32:40.156Z,952.64
2018-04-17T05:33:40.088Z,952.63
2018-04-17T05:34:39.959Z,952.64
2018-04-17T05:35:39.866Z,952.68
2018-04-17T05:36:39.773Z,952.76
2018-04-17T05:37:39.684Z,952.81
2018-04-17T05:38:39.622Z,952.82
2018-04-17T05:39:39.498Z,952.92
2018-04-17T05:40:39.409Z,952.86
2018-04-17T05:41:39.313Z,952.89
2018-04-17T05:42:39.224Z,952.85
2018-04-17T05:43:39.159Z,952.89
2018-04-17T05:44:39.034Z,952.95
2018-04-17T05:45:38.944Z,953.05
2018-04-17T05:46:38.828Z,953.09
2018-04-17T05:47:38.759Z,953.14
2018-04-17T05:48:38.698Z,953.17
2018-04-17T05:49:38.573Z,953.12
2018-04-17T05:50:38.466Z,953.10
2018-04-17T05:51:38.367Z,953.10
2018-04-17T05:52:38.276Z,953.06
2018-04-17T05:53:38.215Z,953.10
2018-04-17T05:54:38.094Z,953.14
2018-04-17T05:55:38.002Z,953.12
2018-04-17T05:56:37.909Z,953.10
2018-04-17T05:57:37.817Z,953.07
2018-04-17T05:58:37.757Z,953.10
2018-04-17T05:59:37.635Z,953.13
2018-04-17T06:00:37.543Z,953.17
2018-04-17T06:01:37.450Z,953.18
2018-04-17T06:02:37.361Z,953.16
2018-04-17T06:03:37.298Z,953.26
2018-04-17T06:04:37.181Z,953.24
2018-04-17T06:05:37.084Z,953.26
2018-04-17T06:06:36.992Z,953.28
2018-04-17T06:07:36.900Z,953.26
2018-04-17T06:08:36.814Z,953.26
2018-04-17T06:09:36.749Z,953.30
2018-04-17T06:10:36.629Z,953.34
2018-04-17T06:11:36.536Z,953.28
2018-04-17T06:12:36.447Z,953.29
2018-04-17T06:13:36.357Z,953.34
2018-04-17T06:14:36.295Z,953.29
2018-04-17T06:15:36.176Z,953.31
2018-04-17T06:16:36.081Z,953.37
2018-04-17T06:17:35.992Z,953.41
2018-04-17T06:18:35.902Z,953.42
2018-04-17T06:19:35.840Z,953.43
2018-04-17T06:20:35.720Z,953.55
2018-04-17T06:21:35.631Z,953.64
2018-04-17T06:22:35.537Z,953.68
2018-04-17T06:23:35.450Z,953.62
2018-04-17T06:24:35.385Z,953.69
2018-04-17T06:25:35.265Z,953.64
2018-04-17T06:26:35.177Z,953.81
2018-04-17T06:27:35.085Z,953.82
2018-04-17T06:28:34.994Z,953.86
2018-04-17T06:29:34.936Z,953.94
2018-04-17T06:30:34.815Z,953.98
2018-04-17T06:31:34.723Z,954.02
2018-04-17T06:32:34.632Z,953.96
2018-04-17T06:33:34.544Z,954.06
2018-04-17T06:34:34.484Z,954.18
2018-04-17T06:35:34.363Z,954.44
2018-04-17T06:36:34.275Z,954.45
2018-04-17T06:37:34.183Z,954.52
2018-04-17T06:38:34.096Z,954.36
2018-04-17T06:39:34.033Z,954.43
2018-04-17T06:40:33.918Z,954.70
2018-04-17T06:41:33.826Z,954.36
2018-04-17T06:42:33.742Z,954.62
2018-04-17T06:43:33.651Z,954.71
2018-04-17T06:44:33.593Z,954.82
2018-04-17T06:45:33.472Z,954.89
2018-04-17T06:46:33.382Z,954.94
2018-04-17T06:47:33.347Z,955.08
2018-04-17T06:48:33.206Z,955.16
2018-04-17T06:49:33.150Z,955.20
2018-04-17T06:50:33.033Z,955.28
2018-04-17T06:51:32.945Z,955.26
2018-04-17T06:52:32.856Z,955.33
2018-04-17T06:53:32.772Z,955.29
2018-04-17T06:54:32.712Z,955.28
2018-04-17T06:55:32.593Z,955.37
2018-04-17T06:56:32.599Z,955.61
2018-04-17T06:57:32.420Z,955.64
2018-04-17T06:58:32.333Z,955.77
2018-04-17T06:59:32.276Z,955.17
2018-04-17T07:00:32.161Z,959.01
2018-04-17T07:01:32.074Z,962.90
2018-04-17T07:02:31.984Z,963.80
2018-04-17T07:03:31.902Z,967.53
2018-04-17T07:04:31.840Z,966.64
2018-04-17T07:05:31.729Z,964.16
2018-04-17T07:06:31.642Z,966.71
2018-04-17T07:07:31.555Z,968.58
2018-04-17T07:08:31.487Z,963.33
2018-04-17T07:09:31.414Z,962.62
2018-04-17T07:10:31.297Z,963.25
2018-04-17T07:11:31.212Z,956.95
2018-04-17T07:12:31.125Z,961.41
2018-04-17T07:13:31.050Z,960.18
2018-04-17T07:14:30.984Z,961.27
2018-04-17T07:15:30.871Z,958.57
2018-04-17T07:16:30.783Z,955.33
2018-04-17T07:17:30.698Z,957.50
2018-04-17T07:18:30.614Z,959.42
2018-04-17T07:19:30.531Z,956.30
2018-04-17T07:20:30.470Z,955.49
2018-04-17T07:21:30.357Z,955.06
2018-04-17T07:22:30.271Z,955.17
2018-04-17T07:23:30.186Z,955.03
2018-04-17T07:24:30.104Z,955.05
2018-04-17T07:25:30.048Z,955.47
2018-04-17T07:26:29.933Z,955.98
2018-04-17T07:27:29.848Z,955.07
2018-04-17T07:28:29.761Z,954.76
2018-04-17T07:29:29.717Z,954.86
2018-04-17T07:30:29.622Z,954.63
2018-04-17T07:31:29.508Z,954.78
2018-04-17T07:32:29.420Z,954.86
2018-04-17T07:33:29.336Z,954.97
2018-04-17T07:34:29.256Z,955.09
2018-04-17T07:35:29.200Z,954.80
2018-04-17T07:36:29.082Z,954.84
2018-04-17T07:37:28.996Z,955.22
2018-04-17T07:38:28.915Z,955.12
2018-04-17T07:39:28.825Z,955.02
2018-04-17T07:40:28.818Z,954.82
2018-04-17T07:41:28.668Z,954.75
2018-04-17T07:42:28.569Z,954.86
2018-04-17T07:43:28.484Z,954.78
2018-04-17T07:44:28.398Z,954.76
2018-04-17T07:45:28.343Z,954.80
2018-04-17T07:46:28.229Z,954.89
2018-04-17T07:47:28.179Z,955.15
2018-04-17T07:48:28.056Z,955.55
2018-04-17T07:49:27.971Z,955.67
2018-04-17T07:50:27.921Z,955.21
2018-04-17T07:51:27.799Z,955.25
2018-04-17T07:52:27.713Z,955.48
2018-04-17T07:53:27.629Z,956.62
2018-04-17T07:54:27.544Z,956.66
2018-04-17T07:55:27.493Z,955.43
2018-04-17T07:56:27.371Z,955.87
2018-04-17T07:57:27.287Z,956.39
2018-04-17T07:58:27.200Z,955.40
2018-04-17T07:59:27.115Z,955.90
2018-04-17T08:00:27.059Z,956.39
2018-04-17T08:01:26.944Z,956.02
2018-04-17T08:02:26.862Z,955.68
2018-04-17T08:03:26.774Z,955.94
2018-04-17T08:04:26.691Z,955.97
2018-04-17T08:05:26.636Z,955.99
2018-04-17T08:06:26.517Z,955.79
2018-04-17T08:07:26.437Z,956.86
2018-04-17T08:08:26.346Z,956.22
2018-04-17T08:09:26.261Z,957.52
2018-04-17T08:10:26.208Z,955.95
2018-04-17T08:11:26.094Z,955.43
2018-04-17T08:12:26.010Z,955.51
2018-04-17T08:13:26.014Z,958.16
2018-04-17T08:14:25.845Z,955.93
2018-04-17T08:15:25.788Z,957.93
2018-04-17T08:16:25.671Z,956.86
2018-04-17T08:17:25.584Z,955.39
2018-04-17T08:18:25.504Z,955.58
2018-04-17T08:19:25.432Z,956.67
2018-04-17T08:20:25.459Z,956.14
2018-04-17T08:21:25.250Z,956.93
2018-04-17T08:22:25.168Z,955.77
2018-04-17T08:23:25.082Z,955.54
2018-04-17T08:24:25.000Z,955.53
2018-04-17T08:25:24.945Z,955.69
2018-04-17T08:26:24.832Z,955.84
2018-04-17T08:27:24.841Z,956.00
2018-04-17T08:28:24.664Z,956.68
2018-04-17T08:29:24.583Z,955.94
2018-04-17T08:30:24.529Z,955.86
2018-04-17T08:31:24.419Z,955.93
2018-04-17T08:32:24.331Z,956.12
2018-04-17T08:33:24.246Z,956.48
2018-04-17T08:34:24.254Z,955.72
2018-04-17T08:35:24.111Z,955.65
2018-04-17T08:36:23.998Z,955.52
2018-04-17T08:37:23.916Z,955.61
2018-04-17T08:38:23.830Z,955.65
2018-04-17T08:39:23.748Z,955.89
2018-04-17T08:40:23.665Z,956.18
2018-04-17T08:41:23.697Z,956.62
2018-04-17T08:42:23.494Z,956.65
2018-04-17T08:43:23.412Z,955.86
2018-04-17T08:44:23.329Z,955.65
2018-04-17T08:45:23.245Z,955.67
2018-04-17T08:46:23.193Z,955.87
2018-04-17T08:47:23.082Z,956.38
2018-04-17T08:48:23.107Z,955.92
2018-04-17T08:49:22.910Z,956.30
2018-04-17T08:50:22.829Z,956.24
2018-04-17T08:51:22.777Z,956.57
2018-04-17T08:52:22.662Z,955.94
2018-04-17T08:53:22.576Z,955.74
2018-04-17T08:54:22.529Z,955.70
2018-04-17T08:55:22.504Z,955.65
2018-04-17T08:56:22.357Z,955.84
2018-04-17T08:57:22.243Z,955.86
2018-04-17T08:58:22.163Z,955.91
2018-04-17T08:59:22.081Z,955.93
2018-04-17T09:00:21.993Z,956.05
2018-04-17T09:01:21.939Z,955.80
2018-04-17T09:02:21.916Z,955.73
2018-04-17T09:03:21.741Z,955.93
2018-04-17T09:04:21.660Z,956.11
2018-04-17T09:05:21.574Z,956.11
2018-04-17T09:06:21.517Z,956.08
2018-04-17T09:07:21.406Z,956.33
2018-04-17T09:08:21.322Z,956.20
2018-04-17T09:09:21.333Z,956.32
2018-04-17T09:10:21.155Z,956.18
2018-04-17T09:11:21.097Z,956.09
2018-04-17T09:12:20.986Z,956.21
2018-04-17T09:13:20.901Z,956.14
2018-04-17T09:14:20.817Z,955.90
2018-04-17T09:15:20.737Z,955.94
2018-04-17T09:16:20.770Z,955.99
2018-04-17T09:17:20.567Z,956.12
2018-04-17T09:18:20.484Z,956.42
2018-04-17T09:19:20.401Z,956.43
2018-04-17T09:20:20.316Z,956.33
2018-04-17T09:21:20.265Z,955.93
2018-04-17T09:22:20.252Z,955.72
2018-04-17T09:23:20.068Z,955.60
2018-04-17T09:24:19.982Z,955.50
2018-04-17T09:25:19.962Z,955.56
2018-04-17T09:26:19.847Z,956.10
2018-04-17T09:27:19.734Z,956.19
2018-04-17T09:28:19.649Z,956.25
2018-04-17T09:29:19.569Z,956.26
2018-04-17T09:30:19.483Z,956.28
2018-04-17T09:31:19.431Z,956.19
2018-04-17T09:32:19.319Z,956.15
2018-04-17T09:33:19.236Z,956.17
2018-04-17T09:34:19.152Z,956.15
2018-04-17T09:35:19.072Z,956.21
2018-04-17T09:36:19.018Z,956.15
2018-04-17T09:37:18.913Z,956.09
2018-04-17T09:38:18.826Z,956.12
2018-04-17T09:39:18.744Z,956.11
2018-04-17T09:40:18.663Z,956.06
2018-04-17T09:41:18.612Z,956.06
2018-04-17T09:42:18.500Z,956.10
2018-04-17T09:43:18.419Z,956.13
2018-04-17T09:44:18.340Z,956.14
2018-04-17T09:45:18.263Z,956.28
2018-04-17T09:46:18.179Z,956.17
2018-04-17T09:47:18.127Z,956.14
2018-04-17T09:48:18.016Z,955.82
2018-04-17T09:49:17.936Z,956.34
2018-04-17T09:50:17.857Z,956.29
2018-04-17T09:51:17.873Z,956.05
2018-04-17T09:52:17.738Z,956.17
2018-04-17T09:53:17.617Z,956.18
2018-04-17T09:54:17.538Z,955.85
2018-04-17T09:55:17.462Z,956.18
2018-04-17T09:56:17.383Z,956.15
2018-04-17T09:57:17.333Z,956.13
2018-04-17T09:58:17.314Z,956.18
2018-04-17T09:59:17.143Z,956.24
2018-04-17T10:00:17.064Z,956.19
2018-04-17T10:01:16.988Z,956.17
2018-04-17T10:02:16.935Z,956.05
2018-04-17T10:03:16.829Z,956.23
2018-04-17T10:04:16.750Z,956.29
2018-04-17T10:05:16.773Z,956.31
2018-04-17T10:06:16.592Z,955.99
2018-04-17T10:07:16.548Z,956.37
2018-04-17T10:08:16.438Z,955.83
2018-04-17T10:09:16.362Z,955.56
2018-04-17T10:10:16.285Z,955.51
2018-04-17T10:11:16.210Z,955.45
2018-04-17T10:12:16.248Z,955.48
2018-04-17T10:13:16.052Z,955.48
2018-04-17T10:14:15.976Z,955.59
2018-04-17T10:15:15.895Z,956.13
2018-04-17T10:16:15.816Z,956.17
2018-04-17T10:17:15.788Z,956.23
2018-04-17T10:18:15.661Z,956.20
2018-04-17T10:19:15.675Z,956.19
2018-04-17T10:20:15.501Z,956.19
2018-04-17T10:21:15.425Z,956.24
2018-04-17T10:22:15.389Z,956.22
2018-04-17T10:23:15.270Z,956.22
2018-04-17T10:24:15.190Z,956.25
2018-04-17T10:25:15.108Z,956.20
2018-04-17T10:26:15.125Z,956.29
2018-04-17T10:27:14.983Z,956.30
2018-04-17T10:28:14.876Z,956.36
2018-04-17T10:29:14.807Z,955.75
2018-04-17T10:30:14.739Z,955.66
2018-04-17T10:31:14.645Z,956.34
2018-04-17T10:32:14.595Z,956.38
2018-04-17T10:33:14.594Z,956.33
2018-04-17T10:34:14.410Z,956.38
2018-04-17T10:35:14.333Z,956.36
2018-04-17T10:36:14.256Z,956.37
2018-04-17T10:37:14.211Z,956.40
2018-04-17T10:38:14.101Z,956.37
2018-04-17T10:39:14.023Z,956.37
2018-04-17T10:40:14.038Z,956.36
2018-04-17T10:41:13.867Z,956.35
2018-04-17T10:42:13.823Z,956.36
2018-04-17T10:43:13.715Z,956.38
2018-04-17T10:44:13.643Z,956.35
2018-04-17T10:45:13.559Z,956.41
2018-04-17T10:46:13.483Z,956.43
2018-04-17T10:47:13.530Z,956.46
2018-04-17T10:48:13.331Z,956.46
2018-04-17T10:49:13.254Z,956.45
2018-04-17T10:50:13.179Z,956.51
2018-04-17T10:51:13.102Z,956.47
2018-04-17T10:52:13.057Z,956.48
2018-04-17T10:53:12.950Z,956.32
2018-04-17T10:54:13.136Z,956.43
2018-04-17T10:55:12.805Z,956.39
2018-04-17T10:56:12.723Z,956.44
2018-04-17T10:57:12.688Z,956.45
2018-04-17T10:58:12.569Z,955.76
2018-04-17T10:59:12.495Z,956.33
2018-04-17T11:00:12.419Z,955.77
2018-04-17T11:01:12.633Z,955.77
2018-04-17T11:02:12.267Z,955.74
2018-04-17T11:03:12.222Z,955.69
2018-04-17T11:04:12.114Z,955.69
2018-04-17T11:05:12.040Z,955.79
2018-04-17T11:06:11.960Z,955.68
2018-04-17T11:07:11.891Z,955.70
2018-04-17T11:08:11.832Z,955.66
2018-04-17T11:09:11.750Z,955.67
2018-04-17T11:10:11.651Z,955.70
2018-04-17T11:11:11.572Z,956.40
2018-04-17T11:12:11.494Z,956.43
2018-04-17T11:13:11.441Z,956.31
2018-04-17T11:14:11.336Z,956.35
2018-04-17T11:15:11.259Z,956.32
2018-04-17T11:16:11.242Z,956.29
2018-04-17T11:17:11.103Z,956.29
2018-04-17T11:18:11.053Z,956.28
2018-04-17T11:19:10.953Z,956.24
2018-04-17T11:20:10.863Z,956.24
2018-04-17T11:21:10.789Z,956.26
2018-04-17T11:22:10.709Z,955.68
2018-04-17T11:23:10.695Z,956.20
2018-04-17T11:24:10.551Z,956.22
2018-04-17T11:25:10.473Z,956.21
2018-04-17T11:26:10.395Z,956.26
2018-04-17T11:27:10.317Z,956.31
2018-04-17T11:28:10.273Z,955.76
2018-04-17T11:29:10.301Z,955.74
2018-04-17T11:30:10.088Z,955.70
2018-04-17T11:31:10.007Z,955.80
2018-04-17T11:32:09.932Z,955.72
2018-04-17T11:33:09.885Z,955.68
2018-04-17T11:34:09.773Z,955.73
2018-04-17T11:35:09.698Z,955.65
2018-04-17T11:36:09.621Z,955.65
2018-04-17T11:37:09.547Z,955.63
2018-04-17T11:38:09.491Z,955.61
2018-04-17T11:39:09.382Z,955.61
2018-04-17T11:40:09.305Z,955.61
2018-04-17T11:41:09.224Z,955.65
2018-04-17T11:42:09.145Z,955.66
2018-04-17T11:43:09.096Z,956.07
2018-04-17T11:44:09.004Z,955.99
2018-04-17T11:45:08.906Z,955.80
2018-04-17T11:46:08.827Z,956.15
2018-04-17T11:47:08.745Z,956.14
2018-04-17T11:48:08.693Z,956.22
2018-04-17T11:49:08.589Z,956.22
2018-04-17T11:50:08.789Z,956.30
2018-04-17T11:51:08.427Z,956.36
2018-04-17T11:52:08.342Z,956.35
2018-04-17T11:53:08.298Z,955.57
2018-04-17T11:54:08.190Z,955.54
2018-04-17T11:55:08.108Z,955.51
2018-04-17T11:56:08.025Z,955.65
2018-04-17T11:57:07.953Z,955.83
2018-04-17T11:58:07.897Z,956.15
2018-04-17T11:59:07.786Z,955.68
2018-04-17T12:00:07.708Z,956.15
2018-04-17T12:01:07.625Z,956.13
2018-04-17T12:02:07.551Z,956.13
2018-04-17T12:03:07.499Z,956.06
2018-04-17T12:04:07.387Z,955.61
2018-04-17T12:05:07.348Z,955.94
2018-04-17T12:06:07.232Z,956.00
2018-04-17T12:07:07.152Z,955.98
2018-04-17T12:08:07.102Z,955.73
2018-04-17T12:09:06.989Z,956.12
2018-04-17T12:10:06.914Z,956.05
2018-04-17T12:11:06.834Z,956.06
2018-04-17T12:12:06.751Z,956.04
2018-04-17T12:13:06.675Z,956.02
2018-04-17T12:14:06.625Z,955.98
2018-04-17T12:15:06.515Z,955.93
2018-04-17T12:16:06.449Z,956.02
2018-04-17T12:17:06.358Z,956.04
2018-04-17T12:18:06.284Z,956.01
2018-04-17T12:19:06.232Z,955.99
2018-04-17T12:20:06.122Z,955.98
2018-04-17T12:21:06.042Z,955.70
2018-04-17T12:22:05.965Z,955.61
2018-04-17T12:23:05.887Z,955.97
2018-04-17T12:24:05.835Z,955.95
2018-04-17T12:25:05.727Z,955.99
2018-04-17T12:26:05.647Z,955.98
2018-04-17T12:27:05.573Z,955.97